Airport Name : Tucson Intl

Other Name : Tucson Intl

ICAO : KTUS

IATA : TUS

FAA : TUS

Latitude : 32.116083

Longitude : -110.941028

Country : United States

Local Date and Time : 26 Feb 2021 08:06

 

TAF (Terminal Aerodrome Forecast)

KTUS 261132Z 2612/2712 14006KT P6SM SKC FM261700 VRB03KT P6SM SCT250 FM262000 34008KT P6SM SCT250 FM270300 24005KT P6SM BKN250 FM270700 15008KT P6SM BKN250

 

METAR (METeorological Aerodrome Report)

KTUS 261453Z 15005KT 10SM CLR 04/M13 A3006 RMK AO2 SLP169 T00391133 53003

KTUS 261353Z 15008KT 10SM CLR 02/M14 A3005 RMK AO2 SLP165 T00171139

KTUS 261253Z 15008KT 10SM CLR 01/M14 A3005 RMK AO2 SLP162 T00111139

KTUS 261153Z 16004KT 10SM CLR 02/M14 A3005 RMK AO2 SLP160 T00221139 10100 20022 55002

To Charter a Jet Click here.